createdAt,value
2022-09-23T00:01:25.379Z,52.67
2022-09-23T00:03:52.495Z,52.33
2022-09-23T00:06:24.088Z,53.00
2022-09-23T00:08:54.320Z,51.91
2022-09-23T00:11:25.957Z,52.31
2022-09-23T00:13:57.582Z,52.09
2022-09-23T00:16:32.685Z,52.81
2022-09-23T00:19:04.337Z,53.66
2022-09-23T00:21:31.505Z,53.93
2022-09-23T00:23:58.777Z,53.78
2022-09-23T00:26:25.891Z,55.17
2022-09-23T00:28:53.192Z,53.91
2022-09-23T00:31:27.372Z,54.42
2022-09-23T00:34:01.769Z,53.52
2022-09-23T00:36:33.413Z,53.19
2022-09-23T00:39:00.654Z,53.73
2022-09-23T00:41:28.080Z,53.60
2022-09-23T00:44:23.426Z,53.61
2022-09-23T00:46:50.732Z,53.53
2022-09-23T00:49:30.357Z,54.11
2022-09-23T00:52:09.211Z,54.53
2022-09-23T00:54:36.261Z,54.74
2022-09-23T00:57:05.760Z,54.84
2022-09-23T00:59:33.055Z,54.29
2022-09-23T01:02:02.353Z,54.00
2022-09-23T01:04:30.605Z,54.33
2022-09-23T01:06:57.577Z,55.78
2022-09-23T01:09:27.522Z,56.32
2022-09-23T01:12:39.804Z,56.20
2022-09-23T01:15:24.216Z,57.32
2022-09-23T01:18:08.867Z,56.34
2022-09-23T01:21:08.322Z,57.17
2022-09-23T01:24:08.322Z,57.42
2022-09-23T01:27:01.024Z,56.52
2022-09-23T01:29:56.081Z,57.21
2022-09-23T01:32:49.456Z,56.46
2022-09-23T01:36:13.006Z,56.95
2022-09-23T01:39:11.920Z,56.71
2022-09-23T01:41:59.783Z,57.71
2022-09-23T01:44:56.587Z,56.38
2022-09-23T01:47:44.281Z,55.84
2022-09-23T01:50:44.837Z,55.96
2022-09-23T01:53:20.998Z,55.17
2022-09-23T01:56:00.349Z,55.40
2022-09-23T01:58:53.945Z,54.68
2022-09-23T02:01:54.082Z,55.53
2022-09-23T02:04:36.754Z,54.97
2022-09-23T02:07:22.050Z,54.40
2022-09-23T02:09:59.385Z,54.24
2022-09-23T02:12:30.399Z,55.48
2022-09-23T02:15:08.687Z,54.68
2022-09-23T02:17:55.714Z,55.08
2022-09-23T02:20:29.741Z,54.83
2022-09-23T02:23:36.155Z,54.58
2022-09-23T02:26:34.585Z,54.46
2022-09-23T02:29:08.142Z,53.76
2022-09-23T02:31:45.650Z,54.23
2022-09-23T02:34:53.133Z,54.53
2022-09-23T02:37:44.046Z,55.09
2022-09-23T02:40:52.493Z,55.00
2022-09-23T02:43:36.251Z,54.33
2022-09-23T02:46:04.981Z,54.03
2022-09-23T02:49:00.802Z,55.08
2022-09-23T02:51:38.253Z,54.89
2022-09-23T02:54:10.683Z,54.50
2022-09-23T02:56:38.005Z,53.86
2022-09-23T02:59:09.563Z,53.72
2022-09-23T03:02:02.177Z,53.89
2022-09-23T03:04:52.078Z,54.20
2022-09-23T03:07:57.498Z,55.45
2022-09-23T03:11:04.422Z,55.14
2022-09-23T03:13:42.638Z,55.49
2022-09-23T03:16:48.027Z,54.75
2022-09-23T03:20:04.561Z,54.45
2022-09-23T03:22:46.981Z,54.47
2022-09-23T03:25:18.154Z,54.26
2022-09-23T03:27:45.796Z,54.56
2022-09-23T03:30:13.821Z,54.49
2022-09-23T03:32:47.985Z,54.70
2022-09-23T03:35:15.004Z,54.45
2022-09-23T03:38:01.050Z,54.26
2022-09-23T03:40:33.655Z,53.84
2022-09-23T03:43:04.535Z,53.85
2022-09-23T03:45:36.653Z,54.17
2022-09-23T03:48:04.486Z,54.72
2022-09-23T03:50:31.590Z,53.91
2022-09-23T03:52:59.445Z,54.23
2022-09-23T03:55:26.470Z,54.29
2022-09-23T03:57:53.718Z,54.68
2022-09-23T04:00:20.779Z,53.80
2022-09-23T04:02:48.428Z,53.87
2022-09-23T04:05:15.568Z,54.17
2022-09-23T04:07:42.665Z,54.26
2022-09-23T04:10:10.989Z,54.56
2022-09-23T04:12:44.063Z,53.76
2022-09-23T04:15:11.322Z,54.19
2022-09-23T04:17:38.540Z,54.46
2022-09-23T04:20:06.437Z,53.94
2022-09-23T04:22:35.167Z,54.11
2022-09-23T04:25:02.479Z,54.79
2022-09-23T04:27:31.292Z,53.92
2022-09-23T04:30:01.422Z,54.22
2022-09-23T04:32:28.438Z,53.85
2022-09-23T04:34:55.398Z,54.12
2022-09-23T04:37:22.477Z,53.51
2022-09-23T04:39:49.443Z,53.73
2022-09-23T04:42:16.451Z,53.85
2022-09-23T04:44:43.418Z,53.43
2022-09-23T04:47:10.423Z,53.63
2022-09-23T04:49:38.421Z,53.59
2022-09-23T04:52:05.798Z,53.84
2022-09-23T04:54:33.024Z,53.23
2022-09-23T04:57:00.100Z,53.01
2022-09-23T04:59:27.113Z,53.99
2022-09-23T05:01:55.513Z,53.61
2022-09-23T05:04:22.929Z,53.47
2022-09-23T05:06:49.960Z,52.18
2022-09-23T05:09:18.221Z,53.99
2022-09-23T05:11:46.035Z,52.98
2022-09-23T05:14:13.500Z,52.99
2022-09-23T05:16:40.928Z,52.79
2022-09-23T05:19:08.356Z,53.63
2022-09-23T05:21:36.694Z,53.88
2022-09-23T05:24:03.927Z,54.66
2022-09-23T05:26:32.622Z,53.96
2022-09-23T05:29:00.423Z,53.58
2022-09-23T05:31:30.426Z,55.21
2022-09-23T05:34:04.930Z,55.73
2022-09-23T05:36:38.805Z,54.56
2022-09-23T05:39:08.251Z,54.45
2022-09-23T05:41:36.599Z,54.67
2022-09-23T05:44:04.255Z,55.16
2022-09-23T05:46:32.124Z,54.19
2022-09-23T05:49:08.163Z,54.05
2022-09-23T05:51:35.972Z,54.23
2022-09-23T05:54:08.447Z,54.44
2022-09-23T05:56:37.354Z,53.38
2022-09-23T05:59:06.437Z,53.56
2022-09-23T06:01:36.797Z,54.63
2022-09-23T06:04:07.831Z,54.17
2022-09-23T06:06:41.592Z,53.37
2022-09-23T06:09:13.565Z,52.97
2022-09-23T06:11:41.670Z,52.92
2022-09-23T06:14:14.685Z,54.43
2022-09-23T06:16:41.788Z,52.83
2022-09-23T06:19:10.162Z,53.11
2022-09-23T06:21:39.599Z,51.09
2022-09-23T06:24:08.166Z,49.02
2022-09-23T06:26:37.990Z,46.90
2022-09-23T06:29:12.260Z,43.70
2022-09-23T06:31:41.249Z,41.93
2022-09-23T06:34:13.459Z,41.01
2022-09-23T06:36:45.338Z,39.01
2022-09-23T06:39:15.137Z,37.71
2022-09-23T06:41:43.371Z,35.74
2022-09-23T06:44:10.519Z,36.45
2022-09-23T06:46:37.688Z,36.84
2022-09-23T06:49:04.714Z,35.34
2022-09-23T06:51:32.136Z,33.02
2022-09-23T06:53:59.128Z,32.36
2022-09-23T06:56:26.263Z,32.25
2022-09-23T06:58:53.501Z,30.54
2022-09-23T07:01:20.737Z,28.68
2022-09-23T07:03:48.648Z,28.28
2022-09-23T07:06:17.265Z,27.98
2022-09-23T07:08:47.255Z,27.53
2022-09-23T07:11:15.976Z,26.76
2022-09-23T07:13:43.663Z,26.16
2022-09-23T07:16:11.784Z,26.93
2022-09-23T07:18:39.777Z,26.21
2022-09-23T07:21:17.040Z,25.37
2022-09-23T07:23:46.982Z,25.89
2022-09-23T07:26:23.215Z,24.15
2022-09-23T07:29:04.870Z,23.83
2022-09-23T07:31:39.946Z,24.43
2022-09-23T07:34:11.528Z,23.99
2022-09-23T07:36:40.838Z,23.50
2022-09-23T07:39:12.130Z,24.70
2022-09-23T07:41:39.847Z,25.01
2022-09-23T07:44:07.033Z,25.24
2022-09-23T07:46:36.513Z,25.97
2022-09-23T07:49:05.467Z,26.69
2022-09-23T07:51:39.334Z,26.05
2022-09-23T07:54:12.159Z,25.17
2022-09-23T07:56:41.826Z,24.15
2022-09-23T07:59:18.203Z,23.42
2022-09-23T08:01:52.725Z,23.11
2022-09-23T08:04:23.388Z,22.01
2022-09-23T08:07:00.835Z,21.61
2022-09-23T08:09:43.605Z,21.24
2022-09-23T08:12:23.113Z,21.42
2022-09-23T08:14:50.106Z,22.57
2022-09-23T08:17:17.072Z,22.49
2022-09-23T08:19:44.089Z,22.59
2022-09-23T08:22:12.403Z,21.71
2022-09-23T08:24:39.561Z,21.53
2022-09-23T08:27:06.558Z,21.45
2022-09-23T08:29:33.891Z,20.59
2022-09-23T08:32:01.425Z,19.51
2022-09-23T08:34:28.817Z,20.38
2022-09-23T08:36:55.856Z,20.68
2022-09-23T08:39:23.599Z,20.86
2022-09-23T08:41:59.114Z,21.12
2022-09-23T08:44:57.272Z,19.70
2022-09-23T08:47:45.842Z,21.08
2022-09-23T08:50:27.146Z,20.20
2022-09-23T08:53:02.787Z,19.19
2022-09-23T08:55:46.776Z,19.81
2022-09-23T08:58:26.805Z,19.97
2022-09-23T09:01:16.471Z,18.73
2022-09-23T09:03:48.087Z,18.76
2022-09-23T09:06:52.240Z,18.11
2022-09-23T09:09:56.807Z,18.78
2022-09-23T09:12:47.234Z,18.59
2022-09-23T09:15:24.955Z,20.17
2022-09-23T09:18:13.986Z,18.69
2022-09-23T09:21:42.477Z,17.58
2022-09-23T09:24:21.847Z,19.41
2022-09-23T09:26:48.893Z,16.54
2022-09-23T09:29:35.485Z,16.81
2022-09-23T09:32:34.031Z,16.83
2022-09-23T09:35:21.417Z,17.43
2022-09-23T09:37:48.544Z,17.40
2022-09-23T09:40:20.790Z,18.89
2022-09-23T09:42:50.327Z,17.94
2022-09-23T09:46:08.377Z,18.56
2022-09-23T09:48:53.722Z,17.57
2022-09-23T09:51:24.275Z,18.27
2022-09-23T09:53:56.111Z,18.72
2022-09-23T09:56:34.545Z,18.74
2022-09-23T09:59:16.837Z,18.52
2022-09-23T10:01:43.896Z,18.71
2022-09-23T10:04:35.029Z,20.60
2022-09-23T10:07:14.403Z,20.83
2022-09-23T10:09:50.211Z,20.47
2022-09-23T10:12:21.468Z,20.99
2022-09-23T10:14:58.868Z,21.55
2022-09-23T10:17:34.110Z,19.84
2022-09-23T10:20:08.255Z,18.27
2022-09-23T10:22:42.552Z,19.49
2022-09-23T10:25:19.270Z,20.77
2022-09-23T10:27:46.933Z,20.05
2022-09-23T10:30:25.792Z,21.03
2022-09-23T10:32:58.214Z,20.46
2022-09-23T10:35:26.672Z,20.20
2022-09-23T10:37:55.387Z,19.54
2022-09-23T10:41:02.762Z,20.63
2022-09-23T10:44:45.826Z,20.73
2022-09-23T10:48:01.403Z,20.69
2022-09-23T10:50:48.654Z,20.48
2022-09-23T10:53:29.052Z,21.77
2022-09-23T10:56:28.832Z,20.52
2022-09-23T10:59:27.995Z,20.92
2022-09-23T11:02:36.006Z,20.44
2022-09-23T11:05:26.522Z,22.18
2022-09-23T11:10:46.512Z,24.68
2022-09-23T11:13:30.044Z,24.62
2022-09-23T11:18:59.676Z,24.50
2022-09-23T11:21:51.890Z,22.10
2022-09-23T11:24:50.177Z,23.59
2022-09-23T11:27:59.516Z,22.10
2022-09-23T11:31:04.368Z,22.93
2022-09-23T11:34:01.731Z,22.06
2022-09-23T11:36:42.075Z,21.45
2022-09-23T11:39:23.294Z,21.75
2022-09-23T11:42:04.812Z,21.68
2022-09-23T11:44:45.280Z,21.40
2022-09-23T11:47:54.388Z,23.61
2022-09-23T11:50:30.314Z,22.61
2022-09-23T11:53:23.795Z,23.91
2022-09-23T11:56:05.611Z,25.36
2022-09-23T11:58:49.446Z,24.52
2022-09-23T12:01:37.000Z,24.84
2022-09-23T12:04:53.287Z,24.52
2022-09-23T12:07:39.367Z,23.51
2022-09-23T12:10:09.351Z,21.27
2022-09-23T12:13:05.013Z,21.22
2022-09-23T12:16:31.578Z,20.25
2022-09-23T12:19:37.180Z,21.37
2022-09-23T12:22:29.069Z,21.16
2022-09-23T12:25:43.276Z,24.75
2022-09-23T12:28:23.473Z,22.68
2022-09-23T12:30:54.650Z,24.10
2022-09-23T12:33:30.372Z,22.44
2022-09-23T12:36:07.969Z,20.41
2022-09-23T12:38:49.507Z,19.28
2022-09-23T12:41:37.682Z,19.28
2022-09-23T12:44:42.259Z,19.45
2022-09-23T12:47:15.310Z,19.56
2022-09-23T12:49:43.739Z,20.13
2022-09-23T12:52:16.707Z,20.92
2022-09-23T12:54:49.915Z,22.01
2022-09-23T12:57:35.132Z,23.65
2022-09-23T13:00:13.961Z,24.09
2022-09-23T13:03:21.658Z,24.30
2022-09-23T13:06:12.119Z,24.92
2022-09-23T13:08:42.256Z,25.25
2022-09-23T13:11:31.879Z,24.85
2022-09-23T13:14:04.799Z,24.17
2022-09-23T13:16:46.738Z,22.68
2022-09-23T13:19:25.832Z,23.11
2022-09-23T13:22:11.476Z,23.49
2022-09-23T13:24:54.164Z,22.16
2022-09-23T13:27:24.494Z,21.64
2022-09-23T13:29:59.601Z,20.90
2022-09-23T13:32:35.632Z,20.61
2022-09-23T13:35:06.992Z,20.71
2022-09-23T13:37:48.898Z,19.24
2022-09-23T13:40:27.781Z,19.66
2022-09-23T13:43:01.782Z,21.15
2022-09-23T13:45:33.957Z,20.56
2022-09-23T13:48:10.623Z,20.17
2022-09-23T13:50:48.652Z,19.69
2022-09-23T13:53:28.424Z,19.03
2022-09-23T13:56:17.912Z,19.12
2022-09-23T13:58:45.099Z,18.96
2022-09-23T14:01:34.832Z,20.39
2022-09-23T14:04:02.772Z,19.71
2022-09-23T14:06:40.980Z,19.67
2022-09-23T14:09:08.168Z,21.01
2022-09-23T14:11:35.636Z,21.36
2022-09-23T14:14:07.903Z,21.83
2022-09-23T14:16:40.876Z,22.12
2022-09-23T14:19:19.823Z,22.74
2022-09-23T14:21:55.759Z,23.11
2022-09-23T14:24:30.900Z,23.27
2022-09-23T14:27:06.650Z,24.04
2022-09-23T14:29:38.301Z,24.85
2022-09-23T14:32:18.823Z,23.20
2022-09-23T14:35:00.965Z,23.88
2022-09-23T14:37:57.657Z,24.31
2022-09-23T14:40:50.835Z,24.84
2022-09-23T14:43:28.240Z,23.85
2022-09-23T14:45:58.564Z,23.41
2022-09-23T14:48:31.500Z,24.72
2022-09-23T14:51:14.473Z,24.36
2022-09-23T14:53:48.800Z,24.81
2022-09-23T14:56:18.383Z,26.18
2022-09-23T14:58:55.199Z,24.24
2022-09-23T15:01:31.449Z,23.70
2022-09-23T15:04:21.559Z,22.75
2022-09-23T15:06:58.806Z,22.83
2022-09-23T15:09:45.785Z,22.39
2022-09-23T15:12:21.230Z,22.40
2022-09-23T15:14:56.897Z,21.61
2022-09-23T15:17:23.860Z,22.59
2022-09-23T15:19:58.447Z,23.47
2022-09-23T15:22:26.615Z,23.41
2022-09-23T15:25:10.842Z,23.55
2022-09-23T15:27:37.845Z,25.72
2022-09-23T15:30:17.109Z,23.95
2022-09-23T15:32:45.594Z,26.47
2022-09-23T15:35:19.206Z,26.21
2022-09-23T15:37:51.826Z,28.48
2022-09-23T15:40:31.314Z,29.31
2022-09-23T15:43:01.437Z,29.21
2022-09-23T15:45:36.390Z,29.21
2022-09-23T15:48:11.947Z,31.32
2022-09-23T15:50:42.549Z,31.09
2022-09-23T15:53:26.224Z,30.56
2022-09-23T15:55:54.122Z,31.76
2022-09-23T15:58:22.606Z,31.19
2022-09-23T16:00:55.909Z,31.50
2022-09-23T16:03:33.690Z,31.38
2022-09-23T16:06:03.239Z,31.17
2022-09-23T16:08:32.937Z,31.72
2022-09-23T16:11:02.977Z,33.10
2022-09-23T16:13:29.947Z,33.51
2022-09-23T16:15:57.095Z,33.31
2022-09-23T16:18:26.590Z,34.83
2022-09-23T16:20:54.741Z,34.14
2022-09-23T16:23:39.932Z,36.20
2022-09-23T16:26:24.329Z,36.75
2022-09-23T16:28:54.198Z,35.86
2022-09-23T16:31:25.497Z,36.65
2022-09-23T16:33:53.855Z,36.64
2022-09-23T16:36:23.017Z,37.15
2022-09-23T16:38:55.523Z,36.94
2022-09-23T16:41:33.901Z,38.82
2022-09-23T16:44:05.483Z,38.90
2022-09-23T16:46:33.266Z,38.79
